Connaught, Ireland

2:14 PM GMT on February 10, 2016 (GMT +0000)
Connaught | | Change Station
CLOSE
Current Station
Airport
Location: Ireland West Airport Knock,
Elevation: 663 ft
Nearby Weather Stations

Elev 663 ft 53.91 °N, 8.81 °W | Updated 14 minutes ago

Scattered Clouds
Scattered Clouds
45 °F
Feels Like 41 °F
N
6
Wind Variable Wind from West

Today
High -- | Low -- °F
--% Chance of Precip.
Yesterday
High -- | Low -- °F
Precip. -- in
Pressure 29.53 in
Visibility 6.2 miles
Clouds Few 2000 ft
Scattered Clouds 12000 ft
Windchill 41 °F
Dew Point 34 °F
Humidity 66%
Rainfall 0.00 in
Snow Depth Not available.
8:06 AM 5:33 PM
Waxing Crescent, 5% visible
METAR EIKN 101400Z 28005KT 250V320 9999 FEW020 SCT120 07/01 Q1000 NOSIG
Pressure 29.53 in
Visibility 6.2 miles
Clouds Few 2000 ft
Scattered Clouds 12000 ft
Windchill 41 °F
Dew Point 34 °F
Humidity 66%
Rainfall 0.00 in
Snow Depth Not available.
8:06 AM 5:33 PM
Waxing Crescent, 5% visible
METAR EIKN 101400Z 28005KT 250V320 9999 FEW020 SCT120 07/01 Q1000 NOSIG

10-Day Weather Forecast

Almanac

Astronomy

Feb. 10, 2016 Rise Set
Actual Time
Civil Twilight
Nautical Twilight
Astronomical Twilight
Moon
Length of Visible Light
Length of Day
Tomorrow will be .
, % of the Moon is Illuminated

Today's Extremes

Country Highs Country Lows

Community

WunderPhotos

Upload Photos

1,891,850 photos uploaded!

WunderBlog® & News

Nearby

Air Quality

  Air Quality AQ Index Pollutant
Not available.

Snow Depth

Station Depth Elevation

Earthquake Activity

City Distance Mag. Time & Date
Minimum magnitude displayed is 2.5.

Coastal Water Temperatures

Place Temperature

Stations

Nearby Weather Stations

Station Location Temp. Windchill Dew Point Humidity Wind Precip. Elev Updated Type